createdAt,value
2022-11-14T00:01:11.074Z,38.17
2022-11-14T00:03:38.169Z,40.40
2022-11-14T00:06:07.193Z,34.83
2022-11-14T00:08:34.723Z,39.23
2022-11-14T00:11:02.626Z,33.73
2022-11-14T00:13:29.546Z,39.97
2022-11-14T00:15:56.786Z,36.77
2022-11-14T00:18:24.057Z,34.03
2022-11-14T00:20:53.067Z,38.50
2022-11-14T00:23:21.287Z,40.00
2022-11-14T00:25:49.038Z,39.63
2022-11-14T00:28:16.506Z,39.50
2022-11-14T00:30:48.219Z,33.83
2022-11-14T00:33:20.091Z,38.17
2022-11-14T00:35:55.110Z,37.10
2022-11-14T00:38:23.065Z,38.17
2022-11-14T00:40:50.038Z,34.20
2022-11-14T00:43:16.974Z,36.93
2022-11-14T00:45:46.130Z,36.50
2022-11-14T00:48:13.660Z,37.03
2022-11-14T00:50:40.941Z,38.47
2022-11-14T00:53:08.197Z,37.80
2022-11-14T00:55:35.264Z,41.33
2022-11-14T00:58:02.245Z,41.53
2022-11-14T01:00:29.223Z,37.23
2022-11-14T01:12:47.154Z,35.33
2022-11-14T01:15:14.174Z,41.63
2022-11-14T01:17:41.116Z,40.90
2022-11-14T01:20:08.490Z,40.60
2022-11-14T01:22:35.415Z,40.67
2022-11-14T01:25:02.372Z,40.47
2022-11-14T01:27:31.929Z,42.40
2022-11-14T01:29:59.038Z,39.77
2022-11-14T01:32:27.026Z,42.20
2022-11-14T01:34:53.966Z,41.17
2022-11-14T01:37:20.954Z,42.50
2022-11-14T01:39:47.842Z,44.93
2022-11-14T01:42:15.712Z,43.47
2022-11-14T01:44:48.614Z,45.37
2022-11-14T01:47:24.373Z,43.30
2022-11-14T01:49:56.255Z,46.23
2022-11-14T01:52:35.407Z,43.90
2022-11-14T01:55:08.355Z,42.37
2022-11-14T01:57:41.153Z,41.30
2022-11-14T02:00:11.780Z,36.97
2022-11-14T02:02:39.171Z,43.70
2022-11-14T02:05:13.458Z,43.53
2022-11-14T02:07:41.742Z,44.20
2022-11-14T02:10:16.734Z,41.47
2022-11-14T02:12:44.927Z,41.47
2022-11-14T02:15:13.522Z,41.53
2022-11-14T02:17:41.766Z,44.97
2022-11-14T02:20:11.995Z,35.60
2022-11-14T02:22:41.515Z,34.57
2022-11-14T02:25:10.935Z,40.20
2022-11-14T02:27:40.544Z,42.83
2022-11-14T02:30:13.295Z,38.27
2022-11-14T02:33:08.879Z,40.37
2022-11-14T02:35:26.997Z,40.80
2022-11-14T02:37:54.689Z,38.10
2022-11-14T02:40:21.550Z,38.83
2022-11-14T02:42:48.509Z,40.57
2022-11-14T02:45:15.402Z,38.30
2022-11-14T02:47:42.325Z,40.13
2022-11-14T02:50:10.084Z,36.70
2022-11-14T02:52:36.964Z,42.00
2022-11-14T02:55:05.902Z,38.17
2022-11-14T02:57:32.768Z,36.67
2022-11-14T02:59:59.604Z,39.80
2022-11-14T03:02:26.490Z,38.07
2022-11-14T03:04:53.840Z,40.40
2022-11-14T03:07:20.869Z,40.87
2022-11-14T03:09:47.906Z,39.60
2022-11-14T03:12:19.023Z,38.27
2022-11-14T03:14:45.987Z,37.37
2022-11-14T03:17:13.119Z,39.97
2022-11-14T03:19:40.061Z,38.07
2022-11-14T03:22:07.064Z,37.83
2022-11-14T03:24:33.986Z,39.50
2022-11-14T03:27:00.859Z,34.93
2022-11-14T03:29:27.709Z,38.57
2022-11-14T03:31:54.569Z,37.17
2022-11-14T03:34:21.488Z,35.87
2022-11-14T03:36:48.420Z,36.00
2022-11-14T03:39:15.384Z,36.57
2022-11-14T03:41:42.265Z,37.67
2022-11-14T03:44:09.195Z,37.97
2022-11-14T03:46:36.077Z,38.20
2022-11-14T03:49:03.278Z,40.97
2022-11-14T03:51:30.192Z,38.23
2022-11-14T03:53:57.034Z,37.80
2022-11-14T03:56:24.048Z,38.60
2022-11-14T03:58:50.976Z,36.80
2022-11-14T04:01:18.088Z,37.13
2022-11-14T04:03:45.012Z,38.03
2022-11-14T04:06:11.882Z,34.97
2022-11-14T04:08:41.376Z,38.67
2022-11-14T04:11:08.346Z,38.00
2022-11-14T04:13:35.217Z,39.43
2022-11-14T04:16:02.333Z,38.70
2022-11-14T04:18:29.627Z,37.60
2022-11-14T04:20:56.832Z,35.60
2022-11-14T04:23:23.768Z,37.80
2022-11-14T04:25:50.641Z,39.90
2022-11-14T04:28:17.739Z,42.27
2022-11-14T04:30:45.326Z,37.65
2022-11-14T04:33:12.362Z,37.57
2022-11-14T04:35:39.307Z,37.37
2022-11-14T04:38:06.295Z,38.57
2022-11-14T04:40:33.458Z,38.73
2022-11-14T04:43:00.467Z,36.17
2022-11-14T04:45:27.706Z,38.37
2022-11-14T04:47:54.773Z,38.57
2022-11-14T04:50:21.744Z,37.47
2022-11-14T04:52:53.584Z,41.67
2022-11-14T04:55:20.491Z,40.33
2022-11-14T04:57:47.495Z,38.80
2022-11-14T05:00:15.128Z,39.13
2022-11-14T05:02:42.032Z,40.20
2022-11-14T05:05:09.321Z,38.70
2022-11-14T05:07:36.235Z,40.70
2022-11-14T05:10:04.702Z,40.40
2022-11-14T05:12:31.968Z,43.00
2022-11-14T05:14:58.837Z,39.13
2022-11-14T05:17:26.046Z,38.93
2022-11-14T05:19:52.923Z,37.90
2022-11-14T05:22:19.996Z,38.53
2022-11-14T05:24:46.914Z,38.70
2022-11-14T05:27:13.822Z,39.93
2022-11-14T05:29:40.681Z,40.33
2022-11-14T05:32:09.299Z,39.37
2022-11-14T05:34:39.250Z,35.43
2022-11-14T05:37:06.175Z,38.00
2022-11-14T05:39:33.119Z,40.60
2022-11-14T05:42:00.049Z,38.43
2022-11-14T05:44:26.966Z,38.40
2022-11-14T05:46:53.854Z,37.47
2022-11-14T05:49:22.154Z,38.60
2022-11-14T05:51:49.259Z,38.63
2022-11-14T05:54:16.128Z,35.50
2022-11-14T05:56:42.994Z,31.70
2022-11-14T05:59:09.841Z,38.07
2022-11-14T06:01:36.900Z,37.03
2022-11-14T06:04:07.040Z,38.37
2022-11-14T06:06:33.969Z,37.97
2022-11-14T06:09:00.907Z,37.60
2022-11-14T06:11:27.766Z,37.07
2022-11-14T06:13:54.663Z,37.27
2022-11-14T06:16:21.601Z,40.00
2022-11-14T06:18:48.680Z,37.70
2022-11-14T06:21:19.607Z,38.57
2022-11-14T06:23:47.182Z,39.97
2022-11-14T06:26:30.359Z,38.47
2022-11-14T06:28:58.978Z,35.03
2022-11-14T06:31:26.524Z,37.47
2022-11-14T06:33:53.781Z,39.60
2022-11-14T06:36:20.686Z,37.75
2022-11-14T06:38:47.600Z,30.70
2022-11-14T06:41:21.096Z,39.63
2022-11-14T06:43:51.383Z,38.40
2022-11-14T06:51:15.977Z,39.67
2022-11-14T06:53:43.384Z,34.03
2022-11-14T06:56:16.193Z,36.00
2022-11-14T07:01:20.739Z,40.40
2022-11-14T07:03:48.351Z,33.80
2022-11-14T07:06:25.631Z,37.45
2022-11-14T07:08:54.288Z,34.65
2022-11-14T07:11:26.525Z,37.13
2022-11-14T07:13:56.223Z,35.70
2022-11-14T07:16:31.648Z,35.60
2022-11-14T07:18:59.750Z,38.73
2022-11-14T07:21:29.221Z,36.97
2022-11-14T07:23:56.880Z,37.57
2022-11-14T07:26:24.287Z,40.73
2022-11-14T07:28:54.415Z,34.60
2022-11-14T07:31:23.759Z,38.50
2022-11-14T07:33:50.760Z,38.73
2022-11-14T07:36:18.403Z,39.90
2022-11-14T07:38:45.261Z,35.73
2022-11-14T07:41:15.541Z,35.57
2022-11-14T07:43:43.114Z,39.10
2022-11-14T07:46:17.049Z,35.50
2022-11-14T07:48:45.089Z,36.93
2022-11-14T07:51:18.386Z,36.20
2022-11-14T07:53:45.366Z,36.70
2022-11-14T07:56:13.016Z,37.03
2022-11-14T08:01:11.236Z,35.10
2022-11-14T08:03:44.063Z,35.00
2022-11-14T08:06:15.226Z,37.97
2022-11-14T08:08:42.373Z,32.60
2022-11-14T08:26:02.331Z,36.70
2022-11-14T08:28:29.642Z,35.20
2022-11-14T08:31:04.391Z,33.80
2022-11-14T08:33:32.146Z,34.70
2022-11-14T08:36:03.629Z,35.80
2022-11-14T08:38:32.841Z,32.00
2022-11-14T08:41:04.677Z,28.70
2022-11-14T08:43:31.931Z,36.33
2022-11-14T08:46:04.510Z,31.20
2022-11-14T08:48:33.474Z,36.33
2022-11-14T08:51:07.389Z,32.27
2022-11-14T08:53:35.255Z,33.30
2022-11-14T08:56:02.908Z,32.10
2022-11-14T08:58:32.042Z,30.73
2022-11-14T09:01:06.153Z,30.47
2022-11-14T09:03:34.136Z,32.37
2022-11-14T09:06:03.336Z,32.00
2022-11-14T09:08:30.905Z,34.77
2022-11-14T09:11:05.551Z,33.60
2022-11-14T09:13:34.500Z,32.83
2022-11-14T09:16:01.660Z,31.63
2022-11-14T09:18:30.349Z,30.90
2022-11-14T09:21:07.471Z,30.90
2022-11-14T09:23:35.337Z,31.37
2022-11-14T09:26:07.453Z,30.77
2022-11-14T09:28:35.433Z,30.97
2022-11-14T09:31:11.713Z,33.00
2022-11-14T09:33:38.853Z,30.90
2022-11-14T09:36:09.060Z,30.77
2022-11-14T09:38:38.727Z,31.30
2022-11-14T09:41:12.923Z,33.67
2022-11-14T09:44:19.142Z,30.40
2022-11-14T09:46:54.792Z,31.00
2022-11-14T09:49:33.138Z,29.73
2022-11-14T09:52:49.148Z,32.07
2022-11-14T09:55:37.189Z,30.13
2022-11-14T09:58:15.932Z,31.03
2022-11-14T10:00:58.911Z,30.70
2022-11-14T10:03:46.053Z,31.53
2022-11-14T10:06:35.882Z,29.27
2022-11-14T10:09:56.345Z,27.40
2022-11-14T10:13:07.273Z,27.80
2022-11-14T10:15:53.433Z,27.20
2022-11-14T10:18:36.832Z,26.20
2022-11-14T10:21:38.473Z,30.10
2022-11-14T10:24:11.227Z,28.00
2022-11-14T10:27:19.201Z,26.90
2022-11-14T10:30:03.778Z,29.37
2022-11-14T10:32:48.626Z,30.40
2022-11-14T10:35:48.286Z,28.50
2022-11-14T10:38:35.578Z,28.73
2022-11-14T10:41:06.708Z,27.30
2022-11-14T10:43:52.406Z,26.00
2022-11-14T10:46:36.660Z,27.00
2022-11-14T10:49:19.893Z,29.60
2022-11-14T10:51:52.569Z,29.07
2022-11-14T10:54:32.965Z,29.00
2022-11-14T10:56:59.825Z,26.97
2022-11-14T10:59:28.000Z,27.70
2022-11-14T11:01:58.502Z,26.53
2022-11-14T11:04:32.371Z,27.37
2022-11-14T11:07:44.742Z,25.30
2022-11-14T11:10:41.614Z,27.60
2022-11-14T11:13:15.658Z,26.73
2022-11-14T11:15:43.047Z,26.70
2022-11-14T11:18:28.834Z,26.57
2022-11-14T11:21:23.362Z,26.63
2022-11-14T11:23:57.790Z,25.60
2022-11-14T11:26:28.300Z,26.53
2022-11-14T11:29:10.150Z,25.33
2022-11-14T11:31:55.099Z,26.93
2022-11-14T11:34:28.795Z,25.53
2022-11-14T11:37:26.937Z,25.37
2022-11-14T11:39:59.055Z,27.50
2022-11-14T11:43:31.698Z,26.97
2022-11-14T11:45:29.265Z,23.83
2022-11-14T11:48:10.454Z,25.90
2022-11-14T11:50:37.312Z,25.73
2022-11-14T11:53:39.881Z,25.07
2022-11-14T11:56:16.166Z,24.60
2022-11-14T11:58:49.901Z,22.63
2022-11-14T12:01:17.641Z,24.27
2022-11-14T12:03:50.494Z,24.80
2022-11-14T12:06:25.389Z,24.70
2022-11-14T12:09:18.504Z,25.40
2022-11-14T12:11:54.294Z,27.77
2022-11-14T12:14:39.419Z,23.80
2022-11-14T12:17:31.242Z,25.23
2022-11-14T12:20:38.832Z,23.20
2022-11-14T12:23:24.356Z,24.33
2022-11-14T12:26:16.454Z,24.47
2022-11-14T12:29:48.466Z,22.13
2022-11-14T12:32:31.585Z,24.60
2022-11-14T12:35:00.095Z,24.73
2022-11-14T12:37:36.320Z,24.37
2022-11-14T12:40:08.037Z,22.60
2022-11-14T12:42:35.894Z,23.67
2022-11-14T12:45:02.851Z,21.00
2022-11-14T12:47:29.885Z,20.40
2022-11-14T12:49:59.564Z,22.27
2022-11-14T12:52:44.416Z,21.30
2022-11-14T12:55:26.720Z,21.83
2022-11-14T12:58:27.448Z,20.80
2022-11-14T13:00:59.799Z,20.50
2022-11-14T13:03:41.397Z,21.63
2022-11-14T13:06:19.845Z,20.40
2022-11-14T13:09:04.629Z,19.63
2022-11-14T13:12:04.169Z,20.50
2022-11-14T13:14:51.638Z,19.57
2022-11-14T13:17:43.874Z,20.20
2022-11-14T13:20:47.954Z,19.20
2022-11-14T13:23:29.531Z,20.23
2022-11-14T13:26:12.020Z,20.13
2022-11-14T13:28:38.929Z,21.47
2022-11-14T13:31:15.815Z,21.60
2022-11-14T13:33:59.869Z,19.50
2022-11-14T13:36:42.964Z,20.07
2022-11-14T13:39:38.288Z,20.17
2022-11-14T13:42:55.202Z,20.23
2022-11-14T13:46:02.070Z,19.47
2022-11-14T13:48:55.217Z,19.57
2022-11-14T13:54:18.066Z,19.60
2022-11-14T13:57:16.124Z,18.27
2022-11-14T14:00:15.470Z,19.40
2022-11-14T14:03:38.608Z,21.73
2022-11-14T14:06:42.889Z,21.30
2022-11-14T14:09:32.593Z,20.33
2022-11-14T14:12:39.124Z,21.10
2022-11-14T14:15:35.495Z,19.63
2022-11-14T14:18:48.118Z,17.90
2022-11-14T14:21:41.625Z,19.63
2022-11-14T14:24:58.054Z,20.03
2022-11-14T14:27:37.137Z,21.30
2022-11-14T14:30:16.876Z,20.90
2022-11-14T14:32:43.894Z,20.13
2022-11-14T14:35:37.122Z,19.40
2022-11-14T14:38:13.347Z,21.73
2022-11-14T14:40:42.976Z,20.13
2022-11-14T14:43:25.332Z,19.80
2022-11-14T14:45:54.269Z,22.40
2022-11-14T14:48:29.012Z,20.57
2022-11-14T14:50:58.568Z,21.17
2022-11-14T14:53:34.929Z,20.07
2022-11-14T14:56:17.029Z,20.53
2022-11-14T14:58:43.958Z,20.93
2022-11-14T15:01:16.562Z,21.53
2022-11-14T15:03:48.914Z,20.70
2022-11-14T15:06:48.701Z,19.57
2022-11-14T15:09:29.683Z,20.23
2022-11-14T15:11:59.993Z,19.50
2022-11-14T15:14:35.557Z,19.10
2022-11-14T15:17:04.372Z,19.90
2022-11-14T15:19:41.157Z,20.73
2022-11-14T15:22:23.732Z,20.07
2022-11-14T15:25:12.225Z,20.33
2022-11-14T15:27:48.914Z,21.53
2022-11-14T15:30:32.062Z,20.43
2022-11-14T15:33:02.004Z,19.77
2022-11-14T15:35:39.768Z,21.23
2022-11-14T15:41:25.173Z,20.60
2022-11-14T15:43:55.168Z,19.73
2022-11-14T15:46:34.105Z,23.13
2022-11-14T15:49:26.071Z,21.00
2022-11-14T15:51:58.459Z,20.57
2022-11-14T15:54:31.924Z,20.57
2022-11-14T15:57:13.756Z,21.83
2022-11-14T15:59:40.682Z,20.47
2022-11-14T16:02:29.859Z,22.90
2022-11-14T16:04:58.930Z,23.77
2022-11-14T16:07:26.081Z,24.00
2022-11-14T16:09:53.184Z,24.27
2022-11-14T16:12:20.093Z,25.23
2022-11-14T16:14:47.214Z,24.53
2022-11-14T16:17:16.345Z,24.97
2022-11-14T16:19:44.012Z,25.97
2022-11-14T16:22:16.358Z,25.70
2022-11-14T16:24:43.303Z,23.40
2022-11-14T16:27:10.476Z,25.70
2022-11-14T16:29:37.322Z,26.10
2022-11-14T16:32:04.382Z,26.03
2022-11-14T16:34:31.628Z,26.87
2022-11-14T16:37:01.397Z,24.77
2022-11-14T16:39:29.046Z,24.50
2022-11-14T16:42:02.641Z,25.37
2022-11-14T16:44:30.038Z,24.90
2022-11-14T16:46:57.077Z,25.33
2022-11-14T16:49:24.650Z,24.37
2022-11-14T16:51:55.810Z,26.83
2022-11-14T16:54:23.060Z,25.37
2022-11-14T16:56:50.071Z,23.93
2022-11-14T16:59:17.072Z,24.90
2022-11-14T17:01:44.418Z,25.40
2022-11-14T17:04:11.592Z,25.90
2022-11-14T17:06:38.575Z,28.17
2022-11-14T17:09:05.608Z,28.83
2022-11-14T17:11:32.558Z,27.73
2022-11-14T17:13:59.517Z,31.27
2022-11-14T17:16:26.483Z,28.97
2022-11-14T17:18:55.105Z,28.53
2022-11-14T17:21:23.273Z,26.40
2022-11-14T17:24:00.417Z,25.30
2022-11-14T17:26:28.509Z,26.13
2022-11-14T17:28:56.201Z,26.20
2022-11-14T17:31:23.382Z,26.80
2022-11-14T17:33:58.280Z,25.37
2022-11-14T17:36:28.809Z,27.40
2022-11-14T17:38:59.239Z,27.00
2022-11-14T17:41:26.465Z,23.80
2022-11-14T17:43:56.791Z,27.80
2022-11-14T17:46:23.856Z,24.20
2022-11-14T17:48:51.187Z,26.03
2022-11-14T17:51:18.605Z,26.47
2022-11-14T17:53:45.789Z,24.03
2022-11-14T17:56:25.283Z,25.40
2022-11-14T17:58:53.598Z,24.70
2022-11-14T18:01:24.525Z,25.10
2022-11-14T18:03:51.607Z,24.37
2022-11-14T18:06:20.821Z,25.80
2022-11-14T18:08:48.608Z,26.73
2022-11-14T18:11:17.660Z,23.27
2022-11-14T18:13:44.937Z,25.63
2022-11-14T18:16:18.217Z,34.03
2022-11-14T18:18:45.269Z,26.40
2022-11-14T18:21:19.050Z,23.90
2022-11-14T18:23:56.081Z,23.73
2022-11-14T18:26:28.678Z,23.67
2022-11-14T18:29:03.614Z,27.13
2022-11-14T18:31:31.133Z,24.63
2022-11-14T18:33:58.826Z,24.10
2022-11-14T18:36:26.092Z,24.40
2022-11-14T18:38:53.635Z,23.50
2022-11-14T18:41:22.310Z,25.00
2022-11-14T18:43:50.019Z,24.43
2022-11-14T18:46:21.663Z,25.93
2022-11-14T18:48:53.527Z,23.83
2022-11-14T18:51:25.002Z,24.73
2022-11-14T18:53:52.492Z,24.00
2022-11-14T18:56:21.550Z,23.20
2022-11-14T18:58:54.385Z,22.70
2022-11-14T19:01:29.635Z,23.80
2022-11-14T19:04:03.909Z,24.33
2022-11-14T19:06:33.329Z,24.33
2022-11-14T19:09:08.116Z,23.37
2022-11-14T19:11:56.869Z,23.10
2022-11-14T19:14:24.090Z,23.93
2022-11-14T19:16:51.004Z,23.00
2022-11-14T19:19:18.057Z,24.17
2022-11-14T19:21:48.694Z,24.17
2022-11-14T19:24:15.707Z,25.47
2022-11-14T19:26:42.877Z,25.53
2022-11-14T19:29:13.314Z,26.17
2022-11-14T19:31:41.797Z,25.20
2022-11-14T19:34:10.251Z,25.57
2022-11-14T19:36:58.853Z,25.80
2022-11-14T19:39:25.529Z,24.77
2022-11-14T19:41:52.757Z,25.70
2022-11-14T19:44:19.869Z,25.53
2022-11-14T19:46:48.085Z,25.60
2022-11-14T19:49:15.594Z,24.50
2022-11-14T19:51:42.924Z,26.73
2022-11-14T19:54:11.277Z,24.60
2022-11-14T19:56:38.638Z,25.80
2022-11-14T19:59:11.084Z,26.43
2022-11-14T20:01:42.377Z,24.60
2022-11-14T20:04:13.370Z,25.43
2022-11-14T20:06:41.678Z,26.53
2022-11-14T20:09:11.095Z,25.10
2022-11-14T20:11:38.670Z,25.33
2022-11-14T20:14:06.715Z,26.00
2022-11-14T20:16:36.792Z,27.17
2022-11-14T20:19:04.972Z,24.17
2022-11-14T20:21:34.788Z,24.50
2022-11-14T20:24:02.252Z,25.40
2022-11-14T20:26:29.302Z,26.70
2022-11-14T20:28:56.466Z,26.50
2022-11-14T20:31:27.441Z,23.47
2022-11-14T20:33:55.270Z,27.17
2022-11-14T20:36:35.291Z,26.37
2022-11-14T20:39:11.054Z,26.07
2022-11-14T20:41:37.997Z,27.07
2022-11-14T20:44:05.051Z,26.60
2022-11-14T20:46:32.078Z,25.27
2022-11-14T20:48:59.054Z,24.50
2022-11-14T20:51:28.058Z,26.07
2022-11-14T20:53:55.965Z,25.80
2022-11-14T20:56:23.184Z,26.90
2022-11-14T20:58:52.142Z,25.80
2022-11-14T21:01:20.174Z,26.90
2022-11-14T21:03:48.501Z,24.70
2022-11-14T21:06:16.712Z,24.13
2022-11-14T21:08:43.914Z,26.47
2022-11-14T21:11:18.136Z,27.33
2022-11-14T21:13:57.563Z,27.23
2022-11-14T21:16:36.832Z,26.57
2022-11-14T21:19:05.261Z,26.87
2022-11-14T21:21:36.675Z,27.00
2022-11-14T21:24:04.174Z,26.83
2022-11-14T21:26:38.341Z,27.67
2022-11-14T21:29:13.650Z,25.97
2022-11-14T21:31:44.615Z,28.63
2022-11-14T21:34:14.510Z,26.60
2022-11-14T21:36:45.842Z,25.93
2022-11-14T21:39:15.849Z,27.57
2022-11-14T21:41:44.446Z,27.60
2022-11-14T21:44:14.599Z,27.60
2022-11-14T21:46:41.734Z,29.33
2022-11-14T21:49:09.543Z,29.13
2022-11-14T21:51:36.416Z,27.47
2022-11-14T21:54:03.564Z,27.00
2022-11-14T21:56:33.032Z,27.80
2022-11-14T21:59:15.121Z,29.27
2022-11-14T22:02:07.207Z,28.37
2022-11-14T22:04:35.389Z,28.20
2022-11-14T22:07:05.269Z,29.30
2022-11-14T22:09:32.768Z,27.50
2022-11-14T22:12:00.020Z,29.07
2022-11-14T22:14:27.438Z,29.20
2022-11-14T22:16:54.345Z,27.33
2022-11-14T22:19:21.596Z,28.23
2022-11-14T22:21:48.609Z,28.53
2022-11-14T22:24:15.441Z,29.73
2022-11-14T22:26:42.331Z,29.50
2022-11-14T22:29:09.691Z,30.87
2022-11-14T22:31:38.071Z,27.97
2022-11-14T22:34:05.303Z,28.90
2022-11-14T22:36:32.980Z,29.17
2022-11-14T22:39:00.583Z,28.77
2022-11-14T22:41:33.438Z,27.70
2022-11-14T22:44:02.397Z,29.50
2022-11-14T22:46:29.781Z,28.47
2022-11-14T22:48:58.111Z,29.77
2022-11-14T22:51:26.936Z,28.87
2022-11-14T22:53:57.107Z,28.07
2022-11-14T22:56:28.361Z,28.37
2022-11-14T22:58:56.172Z,29.23
2022-11-14T23:01:29.672Z,28.60
2022-11-14T23:04:03.861Z,29.60
2022-11-14T23:06:33.536Z,29.33
2022-11-14T23:09:02.248Z,29.50
2022-11-14T23:11:31.438Z,29.60
2022-11-14T23:14:00.219Z,29.10
2022-11-14T23:16:33.238Z,29.50
2022-11-14T23:19:03.559Z,28.47
2022-11-14T23:21:37.409Z,30.00
2022-11-14T23:24:10.662Z,29.30
2022-11-14T23:26:37.761Z,31.07
2022-11-14T23:29:04.884Z,29.57
2022-11-14T23:31:31.754Z,30.27
2022-11-14T23:33:58.679Z,31.37
2022-11-14T23:36:26.028Z,28.27
2022-11-14T23:38:53.759Z,31.27
2022-11-14T23:41:25.354Z,29.63
2022-11-14T23:43:52.293Z,30.20
2022-11-14T23:46:19.170Z,30.63
2022-11-14T23:48:46.039Z,32.00
2022-11-14T23:51:13.644Z,30.90
2022-11-14T23:53:41.243Z,29.77
2022-11-14T23:56:13.189Z,27.97
2022-11-14T23:58:40.444Z,29.77
